Time;durP1;ratioP1;P1;durP2;ratioP2;P2;SDS_P1;SDS_P2;PMS_P1;PMS_P2;Temp;Humidity;BMP_temperature;BMP_pressure;BME280_temperature;BME280_humidity;BME280_pressure;Samples;Min_cycle;Max_cycle;Signal;HPM_P1;HPM_P2
2021/08/08 00:00:52;;;;;;;1.67;0.70;;;;;;;;;;10471048;28;20594;-75
2021/08/08 00:05:56;;;;;;;1.57;0.53;;;;;;;;;;10464818;28;20189;-75
2021/08/08 00:10:58;;;;;;;3.00;0.60;;;;;;;;;;10468577;28;20213;-75
2021/08/08 00:16:02;;;;;;;0.67;0.50;;;;;;;;;;10466987;28;20240;-76
2021/08/08 00:21:05;;;;;;;1.70;0.80;;;;;;;;;;10474847;28;20227;-75
2021/08/08 00:26:08;;;;;;;1.40;0.70;;;;;;;;;;10476850;28;20276;-75
2021/08/08 00:31:12;;;;;;;0.63;0.40;;;;;;;;;;10483367;28;20305;-75
2021/08/08 00:36:15;;;;;;;1.27;0.50;;;;;;;;;;10483944;28;20189;-76
2021/08/08 00:41:17;;;;;;;2.57;0.60;;;;;;;;;;10488399;28;20285;-75
2021/08/08 00:46:21;;;;;;;0.87;0.50;;;;;;;;;;10485674;28;20197;-76
2021/08/08 00:51:23;;;;;;;1.00;0.50;;;;;;;;;;10487551;28;20211;-75
2021/08/08 00:56:28;;;;;;;1.90;0.60;;;;;;;;;;10478607;28;20200;-75
2021/08/08 01:01:36;;;;;;;1.13;0.53;;;;;;;;;;10482781;28;20234;-77
2021/08/08 01:06:40;;;;;;;1.07;0.57;;;;;;;;;;10483657;28;20283;-76
2021/08/08 01:11:43;;;;;;;1.17;0.60;;;;;;;;;;10484971;28;20185;-76
2021/08/08 01:16:48;;;;;;;3.77;0.83;;;;;;;;;;10483968;28;20223;-76
2021/08/08 01:21:51;;;;;;;1.03;0.70;;;;;;;;;;10487540;28;20204;-76
2021/08/08 01:26:55;;;;;;;1.33;0.60;;;;;;;;;;10485709;28;20216;-74
2021/08/08 01:31:58;;;;;;;0.80;0.47;;;;;;;;;;10479205;28;21597;-73
2021/08/08 01:37:00;;;;;;;1.00;0.50;;;;;;;;;;10483424;28;20220;-74
2021/08/08 01:42:05;;;;;;;0.63;0.50;;;;;;;;;;10483504;28;20668;-73
2021/08/08 01:47:08;;;;;;;1.60;0.63;;;;;;;;;;10484061;28;20212;-73
2021/08/08 01:52:11;;;;;;;1.00;0.50;;;;;;;;;;10490237;28;20196;-74
2021/08/08 01:57:15;;;;;;;1.90;0.30;;;;;;;;;;10511960;28;20324;-76
2021/08/08 02:02:18;;;;;;;1.37;0.70;;;;;;;;;;10477730;28;20212;-75
2021/08/08 02:07:22;;;;;;;1.37;0.73;;;;;;;;;;10479691;28;20712;-73
2021/08/08 02:12:28;;;;;;;1.13;0.70;;;;;;;;;;10478968;28;20258;-74
2021/08/08 02:17:31;;;;;;;0.77;0.63;;;;;;;;;;10480446;28;20212;-75
2021/08/08 02:22:34;;;;;;;1.70;0.60;;;;;;;;;;10472989;28;20565;-75
2021/08/08 02:27:37;;;;;;;1.10;0.70;;;;;;;;;;10474017;28;20266;-73
2021/08/08 02:32:40;;;;;;;2.27;1.10;;;;;;;;;;10471600;28;20281;-74
2021/08/08 02:37:42;;;;;;;1.97;1.03;;;;;;;;;;10472163;28;20221;-76
2021/08/08 02:42:46;;;;;;;1.57;0.90;;;;;;;;;;10476145;28;20225;-77
2021/08/08 02:47:49;;;;;;;1.27;0.70;;;;;;;;;;10472981;28;20239;-75
2021/08/08 02:52:53;;;;;;;1.77;0.80;;;;;;;;;;10472565;28;20247;-75
2021/08/08 02:57:57;;;;;;;1.60;0.57;;;;;;;;;;10474552;28;20294;-74
2021/08/08 03:02:59;;;;;;;0.43;0.23;;;;;;;;;;10466748;28;20209;-74
2021/08/08 03:08:02;;;;;;;0.77;0.33;;;;;;;;;;10465275;28;20223;-74
2021/08/08 03:13:06;;;;;;;0.70;0.50;;;;;;;;;;10470417;28;20198;-75
2021/08/08 03:18:09;;;;;;;1.43;0.70;;;;;;;;;;10470594;28;20224;-76
2021/08/08 03:23:11;;;;;;;1.37;0.70;;;;;;;;;;10479537;28;20208;-76
2021/08/08 03:28:15;;;;;;;0.60;0.60;;;;;;;;;;10482565;28;20212;-76
2021/08/08 03:33:18;;;;;;;0.90;0.70;;;;;;;;;;10482545;28;20193;-74
2021/08/08 03:38:20;;;;;;;2.10;0.60;;;;;;;;;;10468486;28;20220;-75
2021/08/08 03:43:24;;;;;;;2.77;0.73;;;;;;;;;;10477366;28;20230;-74
2021/08/08 03:48:27;;;;;;;0.30;0.30;;;;;;;;;;10470605;28;20236;-75
2021/08/08 03:53:29;;;;;;;1.13;0.70;;;;;;;;;;10483556;28;20292;-74
2021/08/08 03:58:33;;;;;;;2.10;0.90;;;;;;;;;;10480826;28;20223;-75
2021/08/08 04:03:35;;;;;;;1.40;0.70;;;;;;;;;;10471693;28;20220;-75
2021/08/08 04:08:38;;;;;;;1.70;0.90;;;;;;;;;;10479024;28;20216;-73
2021/08/08 04:13:42;;;;;;;1.23;0.60;;;;;;;;;;10473173;28;20681;-74
2021/08/08 04:19:05;;;;;;;1.70;0.60;;;;;;;;;;10482564;28;20238;-74
2021/08/08 04:24:07;;;;;;;0.50;0.50;;;;;;;;;;10477534;28;20216;-73
2021/08/08 04:29:11;;;;;;;1.37;0.83;;;;;;;;;;10481367;28;20232;-74
2021/08/08 04:34:14;;;;;;;1.60;0.80;;;;;;;;;;10480974;28;20184;-74
2021/08/08 04:39:16;;;;;;;1.80;0.77;;;;;;;;;;10478365;28;20212;-73
2021/08/08 04:44:20;;;;;;;0.77;0.70;;;;;;;;;;10487554;28;20299;-75
2021/08/08 04:49:23;;;;;;;1.93;0.80;;;;;;;;;;10480940;28;20299;-74
2021/08/08 04:54:25;;;;;;;0.90;0.70;;;;;;;;;;10477179;28;20590;-74
2021/08/08 04:59:29;;;;;;;1.00;0.80;;;;;;;;;;10481264;28;20231;-75
2021/08/08 05:04:32;;;;;;;1.57;0.80;;;;;;;;;;10473143;28;20696;-74
2021/08/08 05:09:34;;;;;;;2.07;0.80;;;;;;;;;;10480835;28;20752;-75
2021/08/08 05:14:39;;;;;;;1.17;0.63;;;;;;;;;;10471421;28;20268;-75
2021/08/08 05:19:41;;;;;;;1.93;0.77;;;;;;;;;;10477052;28;20644;-75
2021/08/08 05:24:44;;;;;;;2.17;0.70;;;;;;;;;;10486001;28;20208;-73
2021/08/08 05:29:48;;;;;;;1.43;0.87;;;;;;;;;;10476143;28;20700;-76
2021/08/08 05:34:50;;;;;;;1.70;0.70;;;;;;;;;;10474219;28;20189;-74
2021/08/08 05:39:53;;;;;;;2.40;0.80;;;;;;;;;;10479692;28;20208;-77
2021/08/08 05:44:57;;;;;;;0.80;0.60;;;;;;;;;;10481459;28;20224;-75
2021/08/08 05:49:59;;;;;;;1.47;0.80;;;;;;;;;;10482924;28;20335;-74
2021/08/08 05:55:02;;;;;;;1.37;0.60;;;;;;;;;;10484931;28;20197;-77
2021/08/08 06:00:07;;;;;;;1.33;0.73;;;;;;;;;;10484085;28;20215;-75
2021/08/08 06:05:10;;;;;;;1.73;0.70;;;;;;;;;;10481865;28;20716;-77
2021/08/08 06:10:12;;;;;;;0.93;0.60;;;;;;;;;;10484953;28;20211;-73
2021/08/08 06:15:16;;;;;;;1.33;0.80;;;;;;;;;;10481918;28;20271;-74
2021/08/08 06:20:19;;;;;;;3.10;1.00;;;;;;;;;;10481134;28;20220;-74
2021/08/08 06:25:21;;;;;;;1.30;0.80;;;;;;;;;;10482388;28;20205;-75
2021/08/08 06:30:25;;;;;;;2.13;0.90;;;;;;;;;;10486600;28;20680;-74
2021/08/08 06:35:28;;;;;;;1.20;0.60;;;;;;;;;;10479289;28;20234;-75
2021/08/08 06:40:30;;;;;;;2.20;0.80;;;;;;;;;;10482259;28;20291;-75
2021/08/08 06:45:34;;;;;;;2.33;0.70;;;;;;;;;;10469620;28;20219;-74
2021/08/08 06:50:37;;;;;;;3.23;1.00;;;;;;;;;;10475158;28;20227;-74
2021/08/08 06:55:39;;;;;;;1.80;0.60;;;;;;;;;;10475274;28;20196;-77
2021/08/08 07:00:43;;;;;;;1.67;0.93;;;;;;;;;;10484490;28;20220;-77
2021/08/08 07:05:45;;;;;;;1.57;0.80;;;;;;;;;;10471547;28;20554;-76
2021/08/08 07:10:48;;;;;;;2.30;0.90;;;;;;;;;;10491485;28;20253;-76
2021/08/08 07:15:52;;;;;;;2.07;0.73;;;;;;;;;;10474783;28;20710;-76
2021/08/08 07:20:55;;;;;;;0.80;0.67;;;;;;;;;;10467423;28;20244;-76
2021/08/08 07:25:57;;;;;;;1.77;0.97;;;;;;;;;;10473638;28;20656;-75
2021/08/08 07:31:01;;;;;;;2.10;0.87;;;;;;;;;;10480206;28;20219;-75
2021/08/08 07:36:04;;;;;;;0.97;0.80;;;;;;;;;;10472481;28;20279;-76
2021/08/08 07:41:09;;;;;;;1.73;0.80;;;;;;;;;;10478655;28;20853;-77
2021/08/08 07:46:15;;;;;;;1.40;0.90;;;;;;;;;;10475115;28;20211;-77
2021/08/08 07:51:18;;;;;;;1.97;1.00;;;;;;;;;;10487431;28;20782;-77
2021/08/08 07:56:20;;;;;;;1.20;0.80;;;;;;;;;;10491161;28;20203;-76
2021/08/08 08:01:24;;;;;;;1.47;0.80;;;;;;;;;;10485101;28;20248;-76
2021/08/08 08:06:27;;;;;;;1.00;0.80;;;;;;;;;;10477658;28;20188;-75
2021/08/08 08:11:30;;;;;;;2.17;0.93;;;;;;;;;;10474190;28;20305;-77
2021/08/08 08:16:34;;;;;;;2.97;1.10;;;;;;;;;;10461471;28;20282;-76
2021/08/08 08:21:36;;;;;;;3.30;1.30;;;;;;;;;;10483253;28;20622;-77
2021/08/08 08:26:39;;;;;;;0.65;0.65;;;;;;;;;;10473019;28;20355;-76
2021/08/08 08:31:43;;;;;;;2.08;0.93;;;;;;;;;;10474452;28;20622;-79
2021/08/08 08:36:45;;;;;;;1.75;0.77;;;;;;;;;;10461543;28;20574;-79
2021/08/08 08:41:50;;;;;;;3.78;1.10;;;;;;;;;;10482580;28;20274;-77
2021/08/08 08:46:58;;;;;;;3.13;1.05;;;;;;;;;;10467417;28;20205;-78
2021/08/08 08:52:02;;;;;;;1.75;0.82;;;;;;;;;;10483157;28;20199;-79
2021/08/08 08:57:06;;;;;;;1.85;0.90;;;;;;;;;;10487383;28;20697;-79
2021/08/08 09:02:11;;;;;;;1.83;0.90;;;;;;;;;;10483934;28;20707;-77
2021/08/08 09:07:17;;;;;;;2.88;0.98;;;;;;;;;;10478450;28;20262;-79
2021/08/08 09:12:23;;;;;;;1.52;0.98;;;;;;;;;;10485048;28;20204;-78
2021/08/08 09:17:27;;;;;;;2.17;1.10;;;;;;;;;;10469858;28;20225;-79
2021/08/08 09:22:29;;;;;;;2.03;1.02;;;;;;;;;;10462716;28;20239;-80
2021/08/08 09:27:36;;;;;;;0.98;0.85;;;;;;;;;;10471230;28;20281;-79
2021/08/08 09:32:40;;;;;;;1.90;1.20;;;;;;;;;;10447865;28;20195;-77
2021/08/08 09:37:43;;;;;;;2.53;1.20;;;;;;;;;;10442410;28;20209;-76
2021/08/08 09:42:46;;;;;;;1.27;1.00;;;;;;;;;;10441804;28;20306;-78
2021/08/08 09:47:51;;;;;;;1.80;1.08;;;;;;;;;;10447063;28;20239;-77
2021/08/08 09:52:55;;;;;;;2.80;1.02;;;;;;;;;;10455576;28;20185;-77
2021/08/08 09:57:59;;;;;;;2.13;1.00;;;;;;;;;;10441446;28;20295;-78
2021/08/08 10:03:03;;;;;;;3.30;0.90;;;;;;;;;;10455691;28;20285;-76
2021/08/08 10:08:07;;;;;;;1.38;0.80;;;;;;;;;;10462545;28;20266;-78
2021/08/08 10:13:21;;;;;;;4.78;1.08;;;;;;;;;;10470098;28;20189;-79
2021/08/08 10:18:27;;;;;;;2.25;1.10;;;;;;;;;;10486287;28;20357;-79
2021/08/08 10:23:32;;;;;;;2.40;1.10;;;;;;;;;;10487253;28;20322;-78
2021/08/08 10:28:35;;;;;;;2.25;0.82;;;;;;;;;;10470293;28;20223;-77
2021/08/08 10:33:45;;;;;;;1.48;0.60;;;;;;;;;;10467486;28;20185;-78
2021/08/08 10:38:48;;;;;;;3.88;0.90;;;;;;;;;;10471163;28;20216;-75
2021/08/08 10:43:50;;;;;;;2.75;1.10;;;;;;;;;;10467568;28;20296;-72
2021/08/08 10:49:02;;;;;;;1.08;0.98;;;;;;;;;;10472394;28;20745;-70
2021/08/08 10:54:05;;;;;;;2.20;1.10;;;;;;;;;;10471723;28;20192;-74
2021/08/08 10:59:18;;;;;;;1.00;0.90;;;;;;;;;;10468281;28;20818;-70
2021/08/08 11:04:30;;;;;;;3.13;1.40;;;;;;;;;;10469552;28;20252;-73
2021/08/08 11:09:33;;;;;;;1.05;0.85;;;;;;;;;;10486227;28;20212;-72
2021/08/08 11:14:35;;;;;;;2.13;0.98;;;;;;;;;;10473367;28;20624;-73
2021/08/08 11:19:40;;;;;;;2.55;1.00;;;;;;;;;;10484710;28;20230;-73
2021/08/08 11:24:44;;;;;;;2.55;1.42;;;;;;;;;;10465170;28;20216;-73
2021/08/08 11:29:51;;;;;;;1.83;0.85;;;;;;;;;;10466874;28;20628;-71
2021/08/08 11:35:00;;;;;;;2.30;1.10;;;;;;;;;;10467709;28;20189;-73
2021/08/08 11:40:04;;;;;;;4.53;1.60;;;;;;;;;;10458537;28;20269;-74
2021/08/08 11:45:07;;;;;;;3.63;1.77;;;;;;;;;;10458055;28;20201;-74
2021/08/08 11:50:11;;;;;;;2.13;1.00;;;;;;;;;;10468022;28;20223;-74
2021/08/08 11:55:14;;;;;;;4.25;2.25;;;;;;;;;;10457297;28;20235;-73
2021/08/08 12:00:17;;;;;;;2.38;0.90;;;;;;;;;;10440102;28;20228;-72
2021/08/08 12:05:21;;;;;;;2.08;0.93;;;;;;;;;;10455642;28;20617;-73
2021/08/08 12:10:30;;;;;;;2.30;0.95;;;;;;;;;;10446350;28;20224;-74
2021/08/08 12:15:33;;;;;;;1.33;0.80;;;;;;;;;;10445476;28;20250;-71
2021/08/08 12:20:38;;;;;;;4.72;2.38;;;;;;;;;;10444475;28;20239;-73
2021/08/08 12:25:43;;;;;;;2.88;1.13;;;;;;;;;;10447155;28;20215;-72
2021/08/08 12:30:46;;;;;;;2.45;0.93;;;;;;;;;;10444195;28;20335;-73
2021/08/08 12:35:50;;;;;;;5.32;2.55;;;;;;;;;;10441513;28;20695;-72
2021/08/08 12:40:54;;;;;;;3.28;1.10;;;;;;;;;;10440914;28;20282;-72
2021/08/08 12:45:57;;;;;;;4.60;1.90;;;;;;;;;;10441507;28;20297;-73
2021/08/08 12:51:01;;;;;;;3.28;1.08;;;;;;;;;;10441201;28;20213;-74
2021/08/08 12:56:03;;;;;;;1.48;0.93;;;;;;;;;;10441395;28;20262;-73
2021/08/08 13:01:17;;;;;;;1.80;0.82;;;;;;;;;;10440441;28;20212;-74
2021/08/08 13:06:23;;;;;;;1.92;0.90;;;;;;;;;;10444524;28;20220;-72
2021/08/08 13:11:25;;;;;;;2.00;0.95;;;;;;;;;;10439860;28;20277;-73
2021/08/08 13:16:28;;;;;;;4.97;1.30;;;;;;;;;;10440815;28;20204;-73
2021/08/08 13:21:34;;;;;;;2.42;0.88;;;;;;;;;;10450750;28;20540;-71
2021/08/08 13:26:36;;;;;;;4.10;1.13;;;;;;;;;;10477829;28;20281;-72
2021/08/08 13:31:39;;;;;;;2.80;0.95;;;;;;;;;;10466604;28;20212;-73
2021/08/08 13:36:43;;;;;;;2.67;1.10;;;;;;;;;;10468956;28;20184;-72
2021/08/08 13:41:46;;;;;;;2.47;1.00;;;;;;;;;;10473627;28;20229;-73
2021/08/08 13:46:48;;;;;;;3.00;1.30;;;;;;;;;;10460328;28;20196;-73
2021/08/08 13:51:52;;;;;;;2.63;1.60;;;;;;;;;;10477251;28;20287;-73
2021/08/08 13:56:55;;;;;;;3.40;1.00;;;;;;;;;;10472290;28;20593;-72
2021/08/08 14:01:57;;;;;;;2.40;1.00;;;;;;;;;;10474537;28;20284;-73
2021/08/08 14:07:02;;;;;;;2.60;1.00;;;;;;;;;;10472436;28;20225;-73
2021/08/08 14:12:05;;;;;;;1.80;0.83;;;;;;;;;;10484226;28;20204;-73
2021/08/08 14:17:07;;;;;;;5.23;1.00;;;;;;;;;;10466092;28;20548;-74
2021/08/08 14:22:11;;;;;;;3.00;1.10;;;;;;;;;;10469837;28;20196;-75
2021/08/08 14:27:14;;;;;;;2.67;1.30;;;;;;;;;;10450861;28;20281;-73
2021/08/08 14:32:17;;;;;;;3.00;1.37;;;;;;;;;;10458993;28;20224;-71
2021/08/08 14:37:21;;;;;;;9.83;3.60;;;;;;;;;;10468044;28;20292;-68
2021/08/08 14:42:24;;;;;;;5.67;1.87;;;;;;;;;;10476382;28;20282;-69
2021/08/08 14:47:26;;;;;;;2.30;1.10;;;;;;;;;;10470462;28;20219;-68
2021/08/08 14:52:30;;;;;;;3.10;1.20;;;;;;;;;;10480382;28;20643;-69
2021/08/08 14:57:33;;;;;;;2.57;1.23;;;;;;;;;;10475681;28;20240;-70
2021/08/08 15:02:35;;;;;;;3.03;1.80;;;;;;;;;;10472085;28;20203;-70
2021/08/08 15:07:40;;;;;;;4.43;1.93;;;;;;;;;;10460613;28;20213;-69
2021/08/08 15:12:43;;;;;;;3.07;1.57;;;;;;;;;;10477327;28;20188;-67
2021/08/08 15:17:45;;;;;;;3.53;1.43;;;;;;;;;;10474112;28;20216;-69
2021/08/08 15:22:50;;;;;;;2.60;1.20;;;;;;;;;;10483497;28;20199;-67
2021/08/08 15:27:54;;;;;;;4.13;1.40;;;;;;;;;;10476769;28;20220;-68
2021/08/08 15:32:56;;;;;;;3.20;1.40;;;;;;;;;;10476043;28;20184;-69
2021/08/08 15:38:00;;;;;;;5.63;2.70;;;;;;;;;;10470594;28;22796;-66
2021/08/08 15:43:03;;;;;;;4.87;1.60;;;;;;;;;;10462829;28;20200;-68
2021/08/08 15:48:06;;;;;;;3.87;1.30;;;;;;;;;;10481855;28;20642;-68
2021/08/08 15:53:09;;;;;;;2.93;1.20;;;;;;;;;;10472375;28;20204;-70
2021/08/08 15:58:12;;;;;;;3.30;1.40;;;;;;;;;;10486649;28;20212;-68
2021/08/08 16:03:15;;;;;;;3.40;1.30;;;;;;;;;;10485478;28;20275;-68
2021/08/08 16:08:20;;;;;;;6.33;2.13;;;;;;;;;;10485900;28;20974;-69
2021/08/08 16:13:22;;;;;;;3.03;1.70;;;;;;;;;;10487378;28;20239;-67
2021/08/08 16:18:25;;;;;;;3.03;1.70;;;;;;;;;;10488340;28;20244;-69
2021/08/08 16:23:29;;;;;;;3.17;1.40;;;;;;;;;;10489927;28;20192;-68
2021/08/08 16:28:34;;;;;;;4.70;1.77;;;;;;;;;;10487923;28;20258;-69
2021/08/08 16:33:36;;;;;;;5.03;1.83;;;;;;;;;;10483369;28;20245;-71
2021/08/08 16:38:40;;;;;;;5.63;1.90;;;;;;;;;;10482670;28;20743;-66
2021/08/08 16:43:46;;;;;;;5.30;1.80;;;;;;;;;;10482394;28;20220;-68
2021/08/08 16:48:49;;;;;;;4.30;2.20;;;;;;;;;;10479450;28;20376;-69
2021/08/08 16:53:53;;;;;;;3.73;2.03;;;;;;;;;;10490769;28;20216;-69
2021/08/08 16:58:56;;;;;;;2.57;1.23;;;;;;;;;;10487043;28;20208;-69
2021/08/08 17:03:58;;;;;;;4.87;2.20;;;;;;;;;;10484294;28;20700;-69
2021/08/08 17:09:02;;;;;;;4.03;1.90;;;;;;;;;;10471783;28;20693;-70
2021/08/08 17:14:05;;;;;;;4.23;1.80;;;;;;;;;;10472789;28;20245;-70
2021/08/08 17:19:07;;;;;;;5.13;1.90;;;;;;;;;;10474748;28;20307;-68
2021/08/08 17:24:11;;;;;;;4.00;1.80;;;;;;;;;;10469705;28;20292;-69
2021/08/08 17:29:14;;;;;;;3.97;1.60;;;;;;;;;;10480583;28;20216;-69
2021/08/08 17:34:16;;;;;;;4.60;1.50;;;;;;;;;;10485532;28;20215;-69
2021/08/08 17:39:21;;;;;;;7.17;1.53;;;;;;;;;;10480791;28;20221;-68
2021/08/08 17:44:24;;;;;;;1.77;1.10;;;;;;;;;;10481599;28;20823;-69
2021/08/08 17:49:26;;;;;;;4.63;1.60;;;;;;;;;;10475997;28;20226;-68
2021/08/08 17:54:30;;;;;;;6.23;2.50;;;;;;;;;;10478425;28;20197;-68
2021/08/08 17:59:32;;;;;;;6.37;2.07;;;;;;;;;;10475171;28;20295;-68
2021/08/08 18:04:35;;;;;;;4.90;2.10;;;;;;;;;;10475835;28;20714;-69
2021/08/08 18:09:39;;;;;;;3.93;1.20;;;;;;;;;;10475204;28;20224;-69
2021/08/08 18:14:41;;;;;;;4.27;1.80;;;;;;;;;;10475416;28;20196;-69
2021/08/08 18:19:44;;;;;;;3.67;1.57;;;;;;;;;;10462394;28;20599;-68
2021/08/08 18:24:48;;;;;;;4.67;1.40;;;;;;;;;;10450699;28;20627;-68
2021/08/08 18:29:50;;;;;;;7.87;3.90;;;;;;;;;;10461121;28;20295;-68
2021/08/08 18:34:53;;;;;;;5.47;1.50;;;;;;;;;;10476300;28;20188;-69
2021/08/08 18:39:57;;;;;;;5.00;2.40;;;;;;;;;;10466956;28;20231;-69
2021/08/08 18:44:59;;;;;;;4.17;1.50;;;;;;;;;;10463900;28;20212;-69
2021/08/08 18:50:02;;;;;;;2.97;1.40;;;;;;;;;;10453535;28;20211;-67
2021/08/08 18:55:06;;;;;;;4.60;1.40;;;;;;;;;;10444997;28;20282;-69
2021/08/08 19:00:10;;;;;;;4.27;1.40;;;;;;;;;;10448846;28;20217;-70
2021/08/08 19:05:12;;;;;;;5.20;2.03;;;;;;;;;;10453537;28;20196;-70
2021/08/08 19:10:16;;;;;;;4.50;1.60;;;;;;;;;;10457560;28;20224;-69
2021/08/08 19:15:20;;;;;;;5.73;2.73;;;;;;;;;;10457821;28;20753;-69
2021/08/08 19:20:23;;;;;;;2.80;1.40;;;;;;;;;;10470222;28;20714;-69
2021/08/08 19:25:27;;;;;;;4.33;1.47;;;;;;;;;;10466369;28;20208;-69
2021/08/08 19:30:30;;;;;;;3.57;1.53;;;;;;;;;;10466201;28;20671;-68
2021/08/08 19:35:32;;;;;;;4.10;1.90;;;;;;;;;;10470857;28;20188;-69
2021/08/08 19:40:36;;;;;;;2.93;1.60;;;;;;;;;;10469314;28;20295;-68
2021/08/08 19:45:39;;;;;;;4.57;1.40;;;;;;;;;;10472770;28;20695;-69
2021/08/08 19:50:42;;;;;;;2.40;1.30;;;;;;;;;;10468025;28;20220;-69
2021/08/08 19:55:45;;;;;;;4.20;1.90;;;;;;;;;;10461823;28;20443;-72
2021/08/08 20:00:48;;;;;;;3.27;1.50;;;;;;;;;;10490517;28;20240;-72
2021/08/08 20:05:50;;;;;;;4.27;1.97;;;;;;;;;;10466752;28;20227;-71
2021/08/08 20:10:55;;;;;;;4.20;1.57;;;;;;;;;;10469399;28;20287;-71
2021/08/08 20:15:57;;;;;;;7.40;3.00;;;;;;;;;;10469585;28;20893;-69
2021/08/08 20:21:00;;;;;;;4.47;2.07;;;;;;;;;;10473025;28;20209;-72
2021/08/08 20:26:04;;;;;;;4.10;1.73;;;;;;;;;;10475827;28;20196;-69
2021/08/08 20:31:07;;;;;;;2.83;1.60;;;;;;;;;;10464636;28;20228;-72
2021/08/08 20:36:10;;;;;;;3.37;1.60;;;;;;;;;;10466276;28;20559;-72
2021/08/08 20:41:14;;;;;;;4.43;1.73;;;;;;;;;;10483230;28;20307;-72
2021/08/08 20:46:16;;;;;;;3.40;1.60;;;;;;;;;;10490049;28;20211;-70
2021/08/08 20:51:19;;;;;;;3.20;1.60;;;;;;;;;;10480994;28;20212;-70
2021/08/08 20:56:23;;;;;;;4.90;1.80;;;;;;;;;;10487018;28;20249;-71
2021/08/08 21:01:25;;;;;;;3.77;1.83;;;;;;;;;;10480558;28;20312;-72
2021/08/08 21:06:28;;;;;;;4.33;2.23;;;;;;;;;;10468732;28;20287;-72
2021/08/08 21:11:32;;;;;;;4.27;1.60;;;;;;;;;;10488996;28;20259;-74
2021/08/08 21:16:35;;;;;;;5.63;2.00;;;;;;;;;;10476805;28;20204;-70
2021/08/08 21:21:37;;;;;;;3.77;1.60;;;;;;;;;;10471190;28;20220;-71
2021/08/08 21:26:41;;;;;;;3.67;1.60;;;;;;;;;;10472760;28;20311;-71
2021/08/08 21:31:43;;;;;;;3.60;1.63;;;;;;;;;;10485736;28;20227;-72
2021/08/08 21:36:46;;;;;;;3.93;1.47;;;;;;;;;;10477815;28;20243;-69
2021/08/08 21:41:50;;;;;;;3.93;1.70;;;;;;;;;;10476436;28;20303;-71
2021/08/08 21:46:53;;;;;;;2.97;1.70;;;;;;;;;;10474530;28;20204;-72
2021/08/08 21:51:56;;;;;;;3.93;1.80;;;;;;;;;;10478253;28;20189;-71
2021/08/08 21:56:59;;;;;;;5.70;1.80;;;;;;;;;;10480233;28;20216;-73
2021/08/08 22:02:02;;;;;;;2.93;1.60;;;;;;;;;;10469790;28;20222;-71
2021/08/08 22:07:05;;;;;;;3.93;2.37;;;;;;;;;;10465567;28;20696;-73
2021/08/08 22:12:09;;;;;;;6.37;2.00;;;;;;;;;;10472330;28;20223;-73
2021/08/08 22:17:11;;;;;;;4.33;1.60;;;;;;;;;;10474195;28;20636;-71
2021/08/08 22:22:14;;;;;;;2.67;1.70;;;;;;;;;;10478429;28;20192;-71
2021/08/08 22:27:18;;;;;;;5.40;2.10;;;;;;;;;;10480927;28;20224;-71
2021/08/08 22:32:22;;;;;;;3.80;1.70;;;;;;;;;;10478140;28;20217;-71
2021/08/08 22:37:25;;;;;;;3.13;1.63;;;;;;;;;;10460443;28;20217;-71
2021/08/08 22:42:29;;;;;;;5.17;1.70;;;;;;;;;;10476054;28;20678;-70
2021/08/08 22:47:31;;;;;;;3.87;1.50;;;;;;;;;;10470456;28;20241;-72
2021/08/08 22:52:34;;;;;;;3.70;1.60;;;;;;;;;;10478848;28;20204;-73
2021/08/08 22:57:37;;;;;;;3.83;1.47;;;;;;;;;;10481472;28;20217;-71
2021/08/08 23:02:40;;;;;;;3.13;1.60;;;;;;;;;;10462650;28;20231;-70
2021/08/08 23:07:43;;;;;;;2.93;1.50;;;;;;;;;;10469713;28;20221;-72
2021/08/08 23:12:47;;;;;;;2.97;1.50;;;;;;;;;;10465170;28;20193;-71
2021/08/08 23:17:50;;;;;;;3.37;1.40;;;;;;;;;;10479005;28;20324;-71
2021/08/08 23:22:52;;;;;;;3.87;1.70;;;;;;;;;;10478648;28;20246;-70
2021/08/08 23:27:57;;;;;;;3.60;1.30;;;;;;;;;;10472101;28;20259;-70
2021/08/08 23:32:59;;;;;;;4.03;1.40;;;;;;;;;;10481226;28;20232;-71
2021/08/08 23:38:02;;;;;;;4.83;1.70;;;;;;;;;;10471702;28;20262;-70
2021/08/08 23:43:05;;;;;;;4.83;1.50;;;;;;;;;;10464100;28;20212;-70
2021/08/08 23:48:08;;;;;;;2.60;1.30;;;;;;;;;;10469022;28;20239;-71
2021/08/08 23:53:10;;;;;;;3.13;1.30;;;;;;;;;;10471595;28;20267;-69
2021/08/08 23:58:14;;;;;;;4.30;1.40;;;;;;;;;;10481521;28;20281;-71
